Bookmark and Share
Track history (hours):
 

Arctic Fury

More information available from US FCC via Universal Licensing System and Coast Guard Vessel Documentation Center.

Last reported at 2013-Oct-25 17:33 UTC. Time now 2014-Apr-19 12:15 UTC.
Position N 48°02' W 122°11'.
Warning: this ship's position is months out of date.

Length 43 m; draft 5 m.

Type: Fishing. MMSI: 366468000.

NotesDate/timePositionNaut miles runAvg speedWind from/ knotsBaromVisibWave heightAir tempDewpointWater temp
2013-Oct-25 17:33N 48°02' W 122°11'4 3.8
2013-Oct-25 16:29N 48°01' W 122°17'7 7.5
2013-Oct-25 15:33N 47°55' W 122°21'9 9.0
2013-Oct-25 14:33N 47°46' W 122°25'6 6.4
2013-Oct-25 13:33N 47°40' W 122°24'1 0.8
2013-Oct-25 12:33N 47°40' W 122°23'0 0.0
2013-Oct-25 11:33N 47°40' W 122°23'0 0.0
2013-Oct-25 10:33N 47°40' W 122°23'0 0.0
2013-Oct-25 09:33N 47°40' W 122°23'0 0.0
2013-Oct-25 08:33N 47°40' W 122°23'0 0.0
2013-Oct-25 07:33N 47°40' W 122°23'0 0.0
2013-Oct-25 06:33N 47°40' W 122°23'0 0.0
2013-Oct-25 05:33N 47°40' W 122°23'0 0.0
2013-Oct-25 04:33N 47°40' W 122°23'0 0.0
2013-Oct-25 03:33N 47°40' W 122°23'0 0.0
2013-Oct-25 02:33N 47°40' W 122°23'0 0.0
2013-Oct-25 01:33N 47°40' W 122°23'0 0.0
2013-Oct-25 00:33N 47°40' W 122°23'0 0.0
2013-Oct-24 23:33N 47°40' W 122°23'0 0.0
2013-Oct-24 22:33N 47°40' W 122°23'0 0.0
2013-Oct-24 21:33N 47°40' W 122°23'0 0.0
2013-Oct-24 20:33N 47°40' W 122°23'0 0.0
2013-Oct-24 19:33N 47°40' W 122°23'0 0.0
2013-Oct-24 18:33N 47°40' W 122°23'0 0.0
2013-Oct-24 17:33N 47°40' W 122°23'0 0.0
2013-Oct-24 16:33N 47°40' W 122°23'0 0.0
2013-Oct-24 15:33N 47°40' W 122°23'0 0.0
2013-Oct-24 14:33N 47°40' W 122°23'0 0.0
2013-Oct-24 13:33N 47°40' W 122°23'0 0.0
2013-Oct-24 12:31N 47°40' W 122°23'0 0.0
2013-Oct-24 11:33N 47°40' W 122°23'0 0.0
2013-Oct-24 10:33N 47°40' W 122°23'0 0.0
2013-Oct-24 09:33N 47°40' W 122°23'0 0.0
2013-Oct-24 08:33N 47°40' W 122°23'0 0.0
2013-Oct-24 07:33N 47°40' W 122°23'0 0.0
2013-Oct-24 06:33N 47°40' W 122°23'0 0.0
2013-Oct-24 05:33N 47°40' W 122°23'0 0.0
2013-Oct-24 04:33N 47°40' W 122°23'0 0.0
2013-Oct-24 03:33N 47°40' W 122°23'0 0.0
2013-Oct-24 02:33N 47°40' W 122°23'0 0.0
2013-Oct-24 01:33N 47°40' W 122°23'0 0.0
2013-Oct-24 00:33N 47°40' W 122°23'0 0.0
2013-Oct-23 23:33N 47°40' W 122°23'0 0.0
2013-Oct-23 22:33N 47°40' W 122°23'0 0.0
2013-Oct-23 21:33N 47°40' W 122°23'0 0.0
2013-Oct-23 20:34N 47°40' W 122°23'0 0.0
2013-Oct-23 19:53N 47°40' W 122°23'0 0.0
2013-Oct-23 19:34N 47°40' W 122°23'0 0.0
2013-Oct-23 19:33N 47°40' W 122°23'0 0.0
2013-Oct-23 18:34N 47°40' W 122°23'0 0.0
2013-Oct-23 18:33N 47°40' W 122°23'0 0.0
2013-Oct-23 17:33N 47°40' W 122°23'0 0.0
2013-Oct-23 17:29N 47°40' W 122°23'0 0.0
2013-Oct-23 16:34N 47°40' W 122°23'0 0.0
2013-Oct-23 16:33N 47°40' W 122°23'0 0.0
2013-Oct-23 15:33N 47°40' W 122°23'0 0.0
2013-Oct-23 15:29N 47°40' W 122°23'0 0.0
2013-Oct-23 14:34N 47°40' W 122°23'0 0.0
2013-Oct-23 14:33N 47°40' W 122°23'0 0.0
2013-Oct-23 13:34N 47°40' W 122°23'0 0.0
2013-Oct-23 13:33N 47°40' W 122°23'0 0.0
2013-Oct-23 12:34N 47°40' W 122°23'0 0.0
2013-Oct-23 12:33N 47°40' W 122°23'0 0.0
2013-Oct-23 11:34N 47°40' W 122°23'0 0.0
2013-Oct-23 11:34N 47°40' W 122°23'0 0.0
2013-Oct-23 10:34N 47°40' W 122°23'0 0.0
2013-Oct-23 10:33N 47°40' W 122°23'0 0.0
2013-Oct-23 09:34N 47°40' W 122°23'0 0.0
2013-Oct-23 09:33N 47°40' W 122°23'0 0.0
2013-Oct-23 08:33N 47°40' W 122°23'0 0.0
2013-Oct-23 08:33N 47°40' W 122°23'0 0.0
2013-Oct-23 07:33N 47°40' W 122°23'0 0.0
2013-Oct-23 07:33N 47°40' W 122°23'0 0.0
2013-Oct-23 06:43N 47°40' W 122°23'0 0.0
2013-Oct-23 06:33N 47°40' W 122°23'0 0.0
2013-Oct-23 03:33N 47°40' W 122°23'0 0.4
2013-Oct-23 03:33N 47°40' W 122°23'0 0.0
2013-Oct-23 02:33N 47°40' W 122°23'0 0.0
2013-Oct-23 02:33N 47°40' W 122°23'0 0.0
2013-Oct-23 01:33N 47°40' W 122°23'0 0.0
2013-Oct-23 01:33N 47°40' W 122°23'0 0.0
2013-Oct-23 00:33N 47°40' W 122°23'0 0.0
2013-Oct-23 00:33N 47°40' W 122°23'0 0.0
2013-Oct-22 23:33N 47°40' W 122°23'0 0.0
2013-Oct-22 23:33N 47°40' W 122°23'0 0.0
2013-Oct-22 22:33N 47°40' W 122°23'0 0.0
2013-Oct-22 22:32N 47°40' W 122°23'0 0.0
2013-Oct-22 21:33N 47°40' W 122°23'0 0.0
2013-Oct-22 20:33N 47°40' W 122°23'0 0.0
2013-Oct-22 19:33N 47°40' W 122°23'0 0.0
2013-Oct-22 18:33N 47°40' W 122°23'1 0.8
2013-Oct-22 17:33N 47°40' W 122°24'7 6.8
2013-Oct-22 16:33N 47°46' W 122°27'9 9.0
2013-Oct-22 15:33N 47°55' W 122°30'20 9.1
2013-Oct-22 13:19N 48°11' W 122°50'8 9.5
2013-Oct-22 12:30N 48°11' W 123°02'1010.0
2013-Oct-22 11:33N 48°12' W 123°16'1010.0
2013-Oct-22 10:33N 48°12' W 123°31'8 8.2
2013-Oct-22 09:33N 48°12' W 123°43'8 7.6
2013-Oct-22 08:31N 48°12' W 123°55'78 3.7
2013-Oct-21 11:33N 46°54' W 124°06'0 0.0
2013-Oct-21 10:33N 46°54' W 124°06'0 0.0
2013-Oct-21 09:33N 46°54' W 124°06'0 0.0
2013-Oct-21 08:34N 46°54' W 124°06'0 0.0
2013-Oct-21 07:33N 46°54' W 124°06'0 0.0
2013-Oct-21 06:33N 46°54' W 124°06'0 0.0
2013-Oct-21 05:33N 46°54' W 124°06'0 0.0
2013-Oct-21 04:33N 46°54' W 124°06'0 0.0
2013-Oct-21 03:34N 46°54' W 124°06'0 0.0
2013-Oct-21 02:33N 46°54' W 124°06'0 0.0
2013-Oct-21 01:34N 46°54' W 124°06'0 0.0
2013-Oct-21 00:33N 46°54' W 124°06'0 0.0
2013-Oct-20 23:33N 46°54' W 124°06'0 0.0
2013-Oct-20 22:33N 46°54' W 124°06'0 0.0
2013-Oct-20 21:33N 46°54' W 124°06'0 0.0
2013-Oct-20 20:33N 46°54' W 124°06'0 0.0
2013-Oct-20 19:33N 46°54' W 124°06'0 0.0
2013-Oct-20 18:33N 46°54' W 124°06'0 0.0
2013-Oct-20 17:33N 46°54' W 124°06'0 0.0
2013-Oct-20 16:33N 46°54' W 124°06'0 0.0
2013-Oct-20 15:33N 46°54' W 124°06'0 0.2
2013-Oct-20 14:33N 46°55' W 124°06'4 4.2
2013-Oct-20 13:33N 46°55' W 124°12'7 6.7
2013-Oct-20 12:33N 47°01' W 124°18'7 7.2
2013-Oct-20 11:33N 47°06' W 124°24'14 7.0
2013-Oct-20 09:33N 47°18' W 124°36'24 0.7
2013-Oct-18 20:34N 46°57' W 124°17'7 7.0
2013-Oct-18 19:33N 46°55' W 124°07'1 0.8
2013-Oct-18 18:34N 46°54' W 124°06'0 0.0
2013-Oct-18 17:33N 46°54' W 124°06'0 0.0
2013-Oct-18 16:33N 46°54' W 124°06'0 0.0
2013-Oct-18 15:33N 46°54' W 124°06'0 0.0
2013-Oct-18 14:33N 46°54' W 124°06'0 0.0
2013-Oct-18 13:33N 46°54' W 124°06'0 0.0
2013-Oct-18 12:33N 46°54' W 124°06'0 0.0
2013-Oct-18 11:33N 46°54' W 124°06'0 0.0
2013-Oct-18 10:33N 46°54' W 124°06'0 0.0
2013-Oct-18 09:33N 46°54' W 124°06'0 0.0
2013-Oct-18 08:33N 46°54' W 124°06'0 0.0
2013-Oct-18 07:33N 46°54' W 124°06'0 0.0
2013-Oct-18 06:33N 46°54' W 124°06'6 6.4
2013-Oct-18 05:33N 46°51' W 124°14'4 0.1
2013-Oct-16 18:33N 46°53' W 124°19'8 7.6
2013-Oct-16 17:33N 46°55' W 124°08'1 1.3
2013-Oct-16 16:33N 46°54' W 124°06'0 0.0
2013-Oct-16 15:34N 46°54' W 124°06'0 0.0
2013-Oct-16 14:33N 46°54' W 124°06'0 0.0
2013-Oct-16 13:34N 46°54' W 124°06'0 0.0
2013-Oct-16 12:33N 46°54' W 124°06'0 0.0
2013-Oct-16 11:33N 46°54' W 124°06'0 0.0
2013-Oct-16 10:33N 46°54' W 124°06'0 0.0
2013-Oct-16 09:33N 46°54' W 124°06'0 0.0
2013-Oct-16 08:33N 46°54' W 124°06'  

Dump ship's entire track history

sailing weather and tide predictions

Arctic Fury — WDE9335 — position and weather